createdAt,value
2018-04-15T00:00:31.903Z,100221.36
2018-04-15T00:02:59.873Z,100223.66
2018-04-15T00:05:27.988Z,100222.89
2018-04-15T00:07:56.079Z,100224.33
2018-04-15T00:10:24.120Z,100224.92
2018-04-15T00:12:51.731Z,100236.10
2018-04-15T00:15:19.622Z,100235.06
2018-04-15T00:17:47.230Z,100235.10
2018-04-15T00:20:14.791Z,100234.44
2018-04-15T00:22:42.355Z,100234.38
2018-04-15T00:25:09.979Z,100233.05
2018-04-15T00:27:37.662Z,100234.44
2018-04-15T00:30:05.525Z,100234.45
2018-04-15T00:32:33.130Z,100243.00
2018-04-15T00:35:00.868Z,100242.23
2018-04-15T00:37:28.427Z,100233.78
2018-04-15T00:39:56.388Z,100229.95
2018-04-15T00:42:23.979Z,100237.09
2018-04-15T00:44:51.598Z,100239.05
2018-04-15T00:47:19.164Z,100244.46
2018-04-15T00:49:47.070Z,100245.01
2018-04-15T00:52:14.691Z,100242.28
2018-04-15T00:54:42.255Z,100240.33
2018-04-15T00:57:09.818Z,100238.80
2018-04-15T00:59:37.414Z,100242.41
2018-04-15T01:02:05.656Z,100249.84
2018-04-15T01:04:33.724Z,100244.16
2018-04-15T01:07:01.292Z,100239.84
2018-04-15T01:09:28.894Z,100238.34
2018-04-15T01:11:57.140Z,100235.39
2018-04-15T01:14:24.759Z,100235.80
2018-04-15T01:16:52.828Z,100239.55
2018-04-15T01:19:20.388Z,100242.75
2018-04-15T01:21:47.998Z,100241.64
2018-04-15T01:24:15.601Z,100235.72
2018-04-15T01:26:43.466Z,100240.26
2018-04-15T01:29:11.078Z,100238.09
2018-04-15T01:31:39.973Z,100236.91
2018-04-15T01:34:07.755Z,100239.50
2018-04-15T01:36:35.729Z,100241.31
2018-04-15T01:39:03.573Z,100240.55
2018-04-15T01:41:31.134Z,100230.68
2018-04-15T01:43:59.128Z,100237.00
2018-04-15T01:46:26.693Z,100233.95
2018-04-15T01:48:54.658Z,100236.64
2018-04-15T01:51:22.264Z,100238.13
2018-04-15T01:53:49.884Z,100236.70
2018-04-15T01:56:17.439Z,100229.22
2018-04-15T01:58:44.995Z,100228.17
2018-04-15T02:01:12.611Z,100240.41
2018-04-15T02:03:40.167Z,100240.82
2018-04-15T02:06:08.319Z,100243.05
2018-04-15T02:08:35.879Z,100248.62
2018-04-15T02:11:03.827Z,100248.97
2018-04-15T02:13:31.919Z,100243.41
2018-04-15T02:15:59.984Z,100247.14
2018-04-15T02:18:28.051Z,100242.75
2018-04-15T02:20:55.662Z,100242.55
2018-04-15T02:23:24.163Z,100250.80
2018-04-15T02:25:52.319Z,100247.73
2018-04-15T02:28:19.874Z,100244.33
2018-04-15T02:30:48.425Z,100242.16
2018-04-15T02:33:16.046Z,100250.59
2018-04-15T02:35:43.937Z,100252.86
2018-04-15T02:38:11.550Z,100261.44
2018-04-15T02:40:39.267Z,100266.30
2018-04-15T02:43:06.874Z,100261.19
2018-04-15T02:45:34.442Z,100265.70
2018-04-15T02:48:02.008Z,100269.23
2018-04-15T02:50:29.806Z,100269.14
2018-04-15T02:52:57.913Z,100268.30
2018-04-15T02:55:25.467Z,100268.72
2018-04-15T02:57:53.085Z,100271.84
2018-04-15T03:00:21.607Z,100265.38
2018-04-15T03:02:50.006Z,100255.56
2018-04-15T03:05:17.627Z,100260.50
2018-04-15T03:07:45.468Z,100268.89
2018-04-15T03:10:13.603Z,100262.78
2018-04-15T03:12:41.724Z,100263.16
2018-04-15T03:15:09.789Z,100267.73
2018-04-15T03:17:37.881Z,100274.22
2018-04-15T03:20:05.483Z,100278.08
2018-04-15T03:22:33.086Z,100274.51
2018-04-15T03:25:01.153Z,100279.38
2018-04-15T03:27:29.220Z,100286.00
2018-04-15T03:29:56.822Z,100290.28
2018-04-15T03:32:24.379Z,100280.56
2018-04-15T03:34:52.020Z,100273.17
2018-04-15T03:37:20.184Z,100274.69
2018-04-15T03:39:47.800Z,100272.84
2018-04-15T03:42:15.397Z,100274.66
2018-04-15T03:44:43.490Z,100278.17
2018-04-15T03:47:11.672Z,100272.50
2018-04-15T03:49:39.827Z,100274.44
2018-04-15T03:52:07.387Z,100273.70
2018-04-15T03:54:35.007Z,100277.77
2018-04-15T03:57:02.563Z,100273.34
2018-04-15T03:59:30.119Z,100274.85
2018-04-15T04:01:57.719Z,100290.31
2018-04-15T04:04:25.338Z,100299.28
2018-04-15T04:06:52.902Z,100297.66
2018-04-15T04:09:20.520Z,100305.38
2018-04-15T04:11:48.142Z,100312.28
2018-04-15T04:14:15.708Z,100323.14
2018-04-15T04:16:44.811Z,100330.62
2018-04-15T04:19:24.698Z,100339.27
2018-04-15T04:22:04.290Z,100342.20
2018-04-15T04:24:44.066Z,100335.76
2018-04-15T04:27:12.597Z,100350.47
2018-04-15T04:29:40.449Z,100356.63
2018-04-15T04:32:08.707Z,100346.66
2018-04-15T04:34:36.528Z,100347.12
2018-04-15T04:37:04.611Z,100341.31
2018-04-15T04:39:32.175Z,100346.84
2018-04-15T04:42:00.090Z,100349.70
2018-04-15T04:44:27.647Z,100357.09
2018-04-15T04:46:55.215Z,100353.05
2018-04-15T04:49:22.775Z,100355.14
2018-04-15T04:51:50.402Z,100358.00
2018-04-15T04:54:17.979Z,100366.14
2018-04-15T04:56:45.736Z,100362.39
2018-04-15T04:59:13.983Z,100368.06
2018-04-15T05:01:42.427Z,100378.48
2018-04-15T05:04:10.383Z,100388.11
2018-04-15T05:06:37.986Z,100393.73
2018-04-15T05:09:07.006Z,100391.34
2018-04-15T05:11:34.610Z,100393.80
2018-04-15T05:14:02.842Z,100401.83
2018-04-15T05:16:30.397Z,100400.50
2018-04-15T05:18:58.021Z,100402.27
2018-04-15T05:21:26.049Z,100406.00
2018-04-15T05:23:54.203Z,100415.53
2018-04-15T05:26:22.151Z,100407.03
2018-04-15T05:28:49.758Z,100407.27
2018-04-15T05:31:17.358Z,100402.84
2018-04-15T05:33:45.874Z,100405.92
2018-04-15T05:36:13.498Z,100402.17
2018-04-15T05:38:41.054Z,100397.27
2018-04-15T05:41:08.667Z,100391.41
2018-04-15T05:43:36.268Z,100389.31
2018-04-15T05:46:05.121Z,100390.55
2018-04-15T05:48:32.725Z,100385.77
2018-04-15T05:51:00.531Z,100385.17
2018-04-15T05:53:28.349Z,100390.39
2018-04-15T05:55:56.416Z,100381.22
2018-04-15T05:58:24.685Z,100388.84
2018-04-15T06:00:52.252Z,100386.95
2018-04-15T06:03:19.813Z,100397.84
2018-04-15T06:05:47.419Z,100403.91
2018-04-15T06:08:15.834Z,100407.12
2018-04-15T06:10:44.037Z,100401.92
2018-04-15T06:13:12.102Z,100400.51
2018-04-15T06:15:39.679Z,100397.45
2018-04-15T06:18:09.278Z,100397.02
2018-04-15T06:20:36.852Z,100406.48
2018-04-15T06:23:04.517Z,100413.13
2018-04-15T06:25:33.031Z,100419.75
2018-04-15T06:28:00.934Z,100430.88
2018-04-15T06:30:28.550Z,100432.24
2018-04-15T06:32:57.426Z,100432.24
2018-04-15T06:35:25.527Z,100434.27
2018-04-15T06:37:53.098Z,100441.74
2018-04-15T06:40:21.039Z,100447.05
2018-04-15T06:42:48.675Z,100449.09
2018-04-15T06:45:16.346Z,100447.18
2018-04-15T06:47:44.008Z,100452.88
2018-04-15T06:50:12.047Z,100455.93
2018-04-15T06:52:40.599Z,100453.27
2018-04-15T06:55:08.158Z,100450.98
2018-04-15T06:57:37.143Z,100457.53
2018-04-15T07:00:05.099Z,100480.17
2018-04-15T07:02:32.655Z,100479.50
2018-04-15T07:05:00.255Z,100479.21
2018-04-15T07:07:27.848Z,100468.81
2018-04-15T07:09:56.167Z,100464.08
2018-04-15T07:12:23.950Z,100469.59
2018-04-15T07:14:51.862Z,100472.42
2018-04-15T07:17:19.698Z,100464.45
2018-04-15T07:19:47.313Z,100461.20
2018-04-15T07:22:14.870Z,100464.11
2018-04-15T07:24:42.778Z,100477.28
2018-04-15T07:27:10.876Z,100485.47
2018-04-15T07:29:38.935Z,100483.90
2018-04-15T07:32:06.491Z,100488.43
2018-04-15T07:34:34.475Z,100480.63
2018-04-15T07:37:02.676Z,100482.03
2018-04-15T07:39:30.286Z,100486.77
2018-04-15T07:41:57.958Z,100497.25
2018-04-15T07:44:25.506Z,100491.25
2018-04-15T07:46:55.200Z,100491.38
2018-04-15T07:49:23.023Z,100493.22
2018-04-15T07:51:51.662Z,100488.79
2018-04-15T07:54:19.468Z,100488.54
2018-04-15T07:56:47.355Z,100476.62
2018-04-15T07:59:14.923Z,100476.73
2018-04-15T08:01:42.535Z,100479.28
2018-04-15T08:04:10.323Z,100475.09
2018-04-15T08:06:38.258Z,100475.80
2018-04-15T08:09:06.939Z,100474.56
2018-04-15T08:11:34.898Z,100469.66
2018-04-15T08:14:03.295Z,100474.61
2018-04-15T08:16:30.910Z,100481.43
2018-04-15T08:18:59.131Z,100477.02
2018-04-15T08:21:28.119Z,100465.07
2018-04-15T08:23:56.623Z,100469.42
2018-04-15T08:26:24.684Z,100474.64
2018-04-15T08:28:53.872Z,100475.67
2018-04-15T08:31:21.874Z,100479.03
2018-04-15T08:33:50.394Z,100483.10
2018-04-15T08:36:18.015Z,100486.62
2018-04-15T08:38:46.157Z,100486.12
2018-04-15T08:41:13.713Z,100482.06
2018-04-15T08:43:41.328Z,100491.41
2018-04-15T08:46:08.899Z,100488.08
2018-04-15T08:48:36.512Z,100485.17
2018-04-15T08:51:04.071Z,100479.45
2018-04-15T08:53:32.476Z,100477.36
2018-04-15T08:56:00.627Z,100473.79
2018-04-15T08:58:28.461Z,100463.73
2018-04-15T09:00:56.079Z,100459.69
2018-04-15T09:03:25.515Z,100452.56
2018-04-15T09:05:53.126Z,100441.39
2018-04-15T09:08:20.681Z,100445.92
2018-04-15T09:10:49.363Z,100449.95
2018-04-15T09:13:17.177Z,100448.81
2018-04-15T09:15:44.815Z,100451.45
2018-04-15T09:18:12.475Z,100451.52
2018-04-15T09:20:40.177Z,100451.11
2018-04-15T09:23:07.795Z,100449.22
2018-04-15T09:25:36.570Z,100446.42
2018-04-15T09:28:04.548Z,100425.10
2018-04-15T09:30:32.191Z,100421.99
2018-04-15T09:32:59.811Z,100415.29
2018-04-15T09:35:27.371Z,100409.18
2018-04-15T09:37:54.996Z,100419.25
2018-04-15T09:40:23.726Z,100418.07
2018-04-15T09:42:51.567Z,100424.88
2018-04-15T09:45:19.616Z,100425.88
2018-04-15T09:47:48.696Z,100413.16
2018-04-15T09:50:16.279Z,100410.14
2018-04-15T09:52:44.230Z,100404.92
2018-04-15T09:55:12.169Z,100402.41
2018-04-15T09:57:40.014Z,100391.52
2018-04-15T10:00:08.554Z,100396.75
2018-04-15T10:02:36.444Z,100396.69
2018-04-15T10:05:04.584Z,100397.16
2018-04-15T10:07:32.701Z,100389.06
2018-04-15T10:10:00.579Z,100378.88
2018-04-15T10:12:28.209Z,100380.50
2018-04-15T10:14:59.818Z,100374.91
2018-04-15T10:17:27.763Z,100381.10
2018-04-15T10:19:56.267Z,100377.01
2018-04-15T10:22:25.362Z,100372.85
2018-04-15T10:24:53.764Z,100376.52
2018-04-15T10:27:22.926Z,100377.25
2018-04-15T10:29:51.623Z,100367.23
2018-04-15T10:32:20.612Z,100367.00
2018-04-15T10:34:48.511Z,100364.31
2018-04-15T10:37:16.562Z,100367.45
2018-04-15T10:39:44.523Z,100366.24
2018-04-15T10:42:12.933Z,100363.50
2018-04-15T10:44:40.815Z,100367.26
2018-04-15T10:47:09.967Z,100371.19
2018-04-15T10:49:39.146Z,100361.43
2018-04-15T10:52:09.937Z,100348.28
2018-04-15T10:54:38.403Z,100349.98
2018-04-15T10:57:06.036Z,100346.52
2018-04-15T10:59:34.228Z,100342.30
2018-04-15T11:02:02.250Z,100345.27
2018-04-15T11:04:30.082Z,100347.02
2018-04-15T11:06:57.874Z,100344.14
2018-04-15T11:09:27.179Z,100342.94
2018-04-15T11:11:56.050Z,100338.48
2018-04-15T11:14:24.639Z,100340.23
2018-04-15T11:16:52.218Z,100341.08
2018-04-15T11:19:20.410Z,100340.98
2018-04-15T11:21:49.152Z,100337.72
2018-04-15T11:24:18.007Z,100333.84
2018-04-15T11:26:47.702Z,100321.14
2018-04-15T11:29:16.388Z,100319.42
2018-04-15T11:31:45.212Z,100314.00
2018-04-15T11:34:13.450Z,100312.94
2018-04-15T11:36:42.008Z,100316.77
2018-04-15T11:39:10.514Z,100312.27
2018-04-15T11:41:38.452Z,100310.33
2018-04-15T11:44:06.271Z,100305.41
2018-04-15T11:46:34.262Z,100308.42
2018-04-15T11:49:02.155Z,100309.93
2018-04-15T11:51:30.180Z,100300.53
2018-04-15T11:53:57.718Z,100295.78
2018-04-15T11:56:25.366Z,100298.11
2018-04-15T11:58:52.930Z,100295.80
2018-04-15T12:01:20.686Z,100285.58
2018-04-15T12:03:49.469Z,100292.13
2018-04-15T12:06:17.423Z,100279.98
2018-04-15T12:08:45.043Z,100271.70
2018-04-15T12:11:12.650Z,100274.69
2018-04-15T12:13:40.281Z,100272.48
2018-04-15T12:16:08.225Z,100273.63
2018-04-15T12:18:36.165Z,100275.14
2018-04-15T12:21:04.431Z,100269.38
2018-04-15T12:23:32.008Z,100271.77
2018-04-15T12:25:59.563Z,100270.98
2018-04-15T12:28:27.667Z,100265.52
2018-04-15T12:30:56.274Z,100262.03
2018-04-15T12:33:24.838Z,100268.42
2018-04-15T12:35:52.479Z,100265.52
2018-04-15T12:38:20.111Z,100257.25
2018-04-15T12:40:47.699Z,100256.50
2018-04-15T12:43:15.315Z,100244.56
2018-04-15T12:45:43.230Z,100241.98
2018-04-15T12:48:11.272Z,100245.88
2018-04-15T12:50:40.640Z,100241.30
2018-04-15T12:53:08.547Z,100237.95
2018-04-15T12:55:36.737Z,100235.81
2018-04-15T12:58:04.838Z,100238.46
2018-04-15T13:00:33.477Z,100232.81
2018-04-15T13:03:01.650Z,100235.81
2018-04-15T13:05:29.768Z,100239.94
2018-04-15T13:07:57.346Z,100236.39
2018-04-15T13:10:26.095Z,100233.42
2018-04-15T13:12:54.753Z,100233.58
2018-04-15T13:15:22.336Z,100229.86
2018-04-15T13:17:50.498Z,100229.78
2018-04-15T13:20:20.186Z,100226.23
2018-04-15T13:22:49.418Z,100220.20
2018-04-15T13:25:16.974Z,100217.53
2018-04-15T13:27:45.057Z,100220.51
2018-04-15T13:30:13.280Z,100213.29
2018-04-15T13:32:41.767Z,100209.44
2018-04-15T13:35:09.367Z,100210.75
2018-04-15T13:37:37.928Z,100207.67
2018-04-15T13:40:05.491Z,100208.62
2018-04-15T13:42:33.306Z,100207.25
2018-04-15T13:45:01.267Z,100202.66
2018-04-15T13:47:29.464Z,100203.17
2018-04-15T13:49:57.967Z,100196.24
2018-04-15T13:52:25.527Z,100196.46
2018-04-15T13:54:54.080Z,100191.14
2018-04-15T13:57:21.704Z,100184.41
2018-04-15T13:59:49.746Z,100180.88
2018-04-15T14:02:17.833Z,100178.12
2018-04-15T14:04:45.455Z,100179.62
2018-04-15T14:07:13.894Z,100174.89
2018-04-15T14:09:41.475Z,100174.35
2018-04-15T14:12:09.035Z,100165.37
2018-04-15T14:14:37.142Z,100165.13
2018-04-15T14:17:04.699Z,100159.00
2018-04-15T14:19:32.264Z,100151.81
2018-04-15T14:21:59.922Z,100140.51
2018-04-15T14:24:27.491Z,100141.80
2018-04-15T14:26:55.056Z,100147.51
2018-04-15T14:29:23.362Z,100133.27
2018-04-15T14:31:51.824Z,100130.45
2018-04-15T14:34:19.455Z,100130.98
2018-04-15T14:36:47.355Z,100129.97
2018-04-15T14:39:14.911Z,100131.95
2018-04-15T14:41:43.037Z,100126.83
2018-04-15T14:44:10.655Z,100124.06
2018-04-15T14:46:38.744Z,100127.54
2018-04-15T14:49:07.129Z,100140.41
2018-04-15T14:51:35.598Z,100142.61
2018-04-15T14:54:04.036Z,100146.98
2018-04-15T14:56:32.003Z,100145.07
2018-04-15T14:59:01.555Z,100143.18
2018-04-15T15:01:29.182Z,100150.10
2018-04-15T15:03:57.580Z,100137.73
2018-04-15T15:06:25.143Z,100142.33
2018-04-15T15:08:52.718Z,100146.13
2018-04-15T15:11:20.647Z,100146.44
2018-04-15T15:13:48.951Z,100146.48
2018-04-15T15:16:16.598Z,100144.66
2018-04-15T15:18:44.159Z,100148.02
2018-04-15T15:21:11.847Z,100149.23
2018-04-15T15:23:39.407Z,100156.62
2018-04-15T15:26:07.227Z,100159.63
2018-04-15T15:28:35.464Z,100155.56
2018-04-15T15:31:03.025Z,100155.84
2018-04-15T15:33:31.419Z,100152.74
2018-04-15T15:35:58.983Z,100148.78
2018-04-15T15:38:26.595Z,100148.46
2018-04-15T15:40:56.419Z,100150.81
2018-04-15T15:43:24.064Z,100150.27
2018-04-15T15:45:51.631Z,100139.34
2018-04-15T15:48:19.745Z,100145.91
2018-04-15T15:50:47.303Z,100138.56
2018-04-15T15:53:16.183Z,100147.38
2018-04-15T15:55:43.783Z,100143.11
2018-04-15T15:58:12.146Z,100144.86
2018-04-15T16:00:39.755Z,100142.23
2018-04-15T16:03:08.126Z,100141.94
2018-04-15T16:05:35.683Z,100141.59
2018-04-15T16:08:04.411Z,100145.42
2018-04-15T16:10:31.971Z,100139.19
2018-04-15T16:12:59.538Z,100143.06
2018-04-15T16:15:27.472Z,100136.23
2018-04-15T16:17:56.079Z,100128.92
2018-04-15T16:20:23.706Z,100128.83
2018-04-15T16:22:51.583Z,100123.61
2018-04-15T16:25:19.142Z,100125.55
2018-04-15T16:27:48.056Z,100123.44
2018-04-15T16:30:16.861Z,100123.28
2018-04-15T16:32:44.970Z,100116.89
2018-04-15T16:35:12.660Z,100118.55
2018-04-15T16:37:40.959Z,100114.19
2018-04-15T16:40:08.584Z,100109.97
2018-04-15T16:42:37.188Z,100107.94
2018-04-15T16:45:04.755Z,100110.25
2018-04-15T16:47:32.439Z,100103.84
2018-04-15T16:50:01.087Z,100096.23
2018-04-15T16:52:29.617Z,100089.55
2018-04-15T16:54:57.372Z,100094.04
2018-04-15T16:57:24.986Z,100095.26
2018-04-15T16:59:53.049Z,100099.25
2018-04-15T17:02:21.118Z,100098.59
2018-04-15T17:04:48.716Z,100103.52
2018-04-15T17:07:16.271Z,100103.25
2018-04-15T17:09:43.878Z,100107.52
2018-04-15T17:12:13.102Z,100093.31
2018-04-15T17:14:40.715Z,100102.05
2018-04-15T17:17:08.274Z,100105.98
2018-04-15T17:19:36.653Z,100103.30
2018-04-15T17:22:05.927Z,100112.19
2018-04-15T17:24:33.882Z,100117.09
2018-04-15T17:27:01.950Z,100111.56
2018-04-15T17:29:29.755Z,100109.77
2018-04-15T17:31:57.369Z,100110.98
2018-04-15T17:34:24.933Z,100107.64
2018-04-15T17:36:53.123Z,100104.98
2018-04-15T17:39:23.348Z,100108.33
2018-04-15T17:41:51.708Z,100111.47
2018-04-15T17:44:20.090Z,100117.51
2018-04-15T17:46:48.675Z,100105.98
2018-04-15T17:49:16.231Z,100105.31
2018-04-15T17:51:43.828Z,100102.88
2018-04-15T17:54:12.406Z,100094.92
2018-04-15T17:56:41.213Z,100099.11
2018-04-15T17:59:08.790Z,100095.56
2018-04-15T18:01:36.720Z,100101.28
2018-04-15T18:04:04.836Z,100108.22
2018-04-15T18:06:32.647Z,100107.34
2018-04-15T18:09:01.694Z,100120.00
2018-04-15T18:11:29.683Z,100114.22
2018-04-15T18:13:57.418Z,100120.31
2018-04-15T18:16:26.084Z,100116.07
2018-04-15T18:18:53.707Z,100115.02
2018-04-15T18:21:22.584Z,100114.71
2018-04-15T18:23:50.713Z,100122.55
2018-04-15T18:26:18.408Z,100119.00
2018-04-15T18:28:46.289Z,100116.05
2018-04-15T18:31:14.371Z,100118.59
2018-04-15T18:33:42.431Z,100118.58
2018-04-15T18:36:10.266Z,100124.02
2018-04-15T18:38:38.218Z,100125.86
2018-04-15T18:41:06.379Z,100132.23
2018-04-15T18:43:33.980Z,100138.45
2018-04-15T18:46:01.592Z,100137.98
2018-04-15T18:48:30.583Z,100130.95
2018-04-15T18:50:59.900Z,100127.63
2018-04-15T18:53:29.827Z,100137.16
2018-04-15T18:55:58.843Z,100136.72
2018-04-15T18:58:28.272Z,100136.94
2018-04-15T19:00:56.161Z,100130.37
2018-04-15T19:03:23.788Z,100132.02
2018-04-15T19:05:51.408Z,100126.85
2018-04-15T19:08:19.224Z,100121.86
2018-04-15T19:10:47.972Z,100107.39
2018-04-15T19:13:16.330Z,100116.08
2018-04-15T19:15:44.766Z,100110.20
2018-04-15T19:18:15.124Z,100105.16
2018-04-15T19:20:42.847Z,100108.99
2018-04-15T19:23:10.935Z,100099.91
2018-04-15T19:25:39.183Z,100089.13
2018-04-15T19:28:07.231Z,100091.99
2018-04-15T19:30:35.278Z,100096.96
2018-04-15T19:33:03.247Z,100094.20
2018-04-15T19:35:32.040Z,100087.16
2018-04-15T19:38:00.581Z,100095.16
2018-04-15T19:40:29.012Z,100104.52
2018-04-15T19:42:58.466Z,100098.08
2018-04-15T19:45:28.378Z,100095.91
2018-04-15T19:47:56.007Z,100090.29
2018-04-15T19:50:24.008Z,100093.69
2018-04-15T19:52:52.244Z,100095.33
2018-04-15T19:55:19.883Z,100094.73
2018-04-15T19:57:47.444Z,100100.92
2018-04-15T20:00:15.558Z,100110.09
2018-04-15T20:02:43.441Z,100109.89
2018-04-15T20:05:11.804Z,100118.25
2018-04-15T20:07:39.375Z,100118.45
2018-04-15T20:10:06.941Z,100124.75
2018-04-15T20:12:34.994Z,100130.59
2018-04-15T20:15:03.031Z,100131.73
2018-04-15T20:17:31.556Z,100133.85
2018-04-15T20:19:59.631Z,100131.10
2018-04-15T20:22:27.998Z,100129.78
2018-04-15T20:24:55.963Z,100140.96
2018-04-15T20:27:23.867Z,100132.00
2018-04-15T20:29:51.427Z,100135.49
2018-04-15T20:32:19.003Z,100139.69
2018-04-15T20:34:47.276Z,100132.63
2018-04-15T20:37:14.839Z,100131.91
2018-04-15T20:39:43.590Z,100129.37
2018-04-15T20:42:11.332Z,100123.25
2018-04-15T20:44:39.616Z,100118.50
2018-04-15T20:47:07.839Z,100119.98
2018-04-15T20:49:36.020Z,100121.97
2018-04-15T20:52:03.591Z,100119.61
2018-04-15T20:54:31.190Z,100109.74
2018-04-15T20:56:58.978Z,100115.13
2018-04-15T20:59:26.960Z,100117.81
2018-04-15T21:01:55.166Z,100110.08
2018-04-15T21:04:24.991Z,100106.44
2018-04-15T21:06:52.574Z,100107.52
2018-04-15T21:09:20.195Z,100111.81
2018-04-15T21:11:48.055Z,100116.91
2018-04-15T21:14:15.627Z,100118.70
2018-04-15T21:16:44.392Z,100121.22
2018-04-15T21:19:12.007Z,100120.53
2018-04-15T21:21:39.662Z,100122.07
2018-04-15T21:24:07.399Z,100131.25
2018-04-15T21:26:34.958Z,100136.63
2018-04-15T21:29:03.522Z,100143.84
2018-04-15T21:31:31.636Z,100143.05
2018-04-15T21:33:59.214Z,100129.73
2018-04-15T21:36:28.268Z,100123.64
2018-04-15T21:38:55.848Z,100123.02
2018-04-15T21:41:23.979Z,100120.09
2018-04-15T21:43:51.590Z,100114.61
2018-04-15T21:46:19.421Z,100114.21
2018-04-15T21:48:47.062Z,100120.29
2018-04-15T21:51:15.366Z,100126.96
2018-04-15T21:53:42.978Z,100136.03
2018-04-15T21:56:11.074Z,100130.96
2018-04-15T21:58:39.143Z,100122.82
2018-04-15T22:01:07.190Z,100121.39
2018-04-15T22:03:34.822Z,100125.01
2018-04-15T22:06:02.368Z,100126.77
2018-04-15T22:08:30.761Z,100126.59
2018-04-15T22:10:58.593Z,100129.75
2018-04-15T22:13:26.597Z,100139.97
2018-04-15T22:15:54.201Z,100143.48
2018-04-15T22:18:21.892Z,100129.63
2018-04-15T22:20:49.504Z,100121.42
2018-04-15T22:23:17.650Z,100125.80
2018-04-15T22:25:45.274Z,100120.45
2018-04-15T22:28:12.835Z,100117.49
2018-04-15T22:30:41.349Z,100108.65
2018-04-15T22:33:09.485Z,100113.17
2018-04-15T22:35:37.551Z,100104.13
2018-04-15T22:38:05.495Z,100089.66
2018-04-15T22:40:33.334Z,100087.73
2018-04-15T22:43:00.898Z,100094.77
2018-04-15T22:45:28.504Z,100095.50
2018-04-15T22:48:01.584Z,100106.83
2018-04-15T22:50:34.651Z,100111.41
2018-04-15T22:53:02.269Z,100106.85
2018-04-15T22:55:30.251Z,100093.52
2018-04-15T22:57:57.901Z,100090.65
2018-04-15T23:00:25.462Z,100107.63
2018-04-15T23:02:54.552Z,100105.45
2018-04-15T23:05:22.735Z,100105.92
2018-04-15T23:07:50.295Z,100093.22
2018-04-15T23:10:18.546Z,100090.78
2018-04-15T23:12:46.614Z,100090.46
2018-04-15T23:15:14.704Z,100084.37
2018-04-15T23:17:42.342Z,100075.14
2018-04-15T23:20:09.933Z,100073.42
2018-04-15T23:22:37.533Z,100066.64
2018-04-15T23:25:05.131Z,100065.52
2018-04-15T23:27:32.695Z,100055.41
2018-04-15T23:30:00.512Z,100055.38
2018-04-15T23:32:28.861Z,100055.05
2018-04-15T23:34:56.681Z,100052.28
2018-04-15T23:37:24.278Z,100050.82
2018-04-15T23:39:51.902Z,100045.11
2018-04-15T23:42:20.104Z,100053.02
2018-04-15T23:44:47.669Z,100048.13
2018-04-15T23:47:15.234Z,100044.45
2018-04-15T23:49:43.103Z,100048.59
2018-04-15T23:52:11.278Z,100040.36
2018-04-15T23:54:38.835Z,100036.09
2018-04-15T23:57:06.457Z,100037.61
2018-04-15T23:59:34.041Z,100031.96
